sensor_id;sensor_type;location;lat;lon;timestamp;P1;durP1;ratioP1;P2;durP2;ratioP2
10260;SDS011;5175;42.606;23.388;2023-06-26T00:00:02;25.63;;;23.02;;
10260;SDS011;5175;42.606;23.388;2023-06-26T00:02:30;22.65;;;20.42;;
10260;SDS011;5175;42.606;23.388;2023-06-26T00:04:58;25.02;;;22.48;;
10260;SDS011;5175;42.606;23.388;2023-06-26T00:07:27;24.85;;;22.35;;
10260;SDS011;5175;42.606;23.388;2023-06-26T00:09:54;23.80;;;21.50;;
10260;SDS011;5175;42.606;23.388;2023-06-26T00:12:22;24.10;;;21.60;;
10260;SDS011;5175;42.606;23.388;2023-06-26T00:14:49;22.23;;;19.90;;
10260;SDS011;5175;42.606;23.388;2023-06-26T00:17:16;23.15;;;20.85;;
10260;SDS011;5175;42.606;23.388;2023-06-26T00:19:42;22.63;;;20.27;;
10260;SDS011;5175;42.606;23.388;2023-06-26T00:22:09;22.05;;;19.75;;
10260;SDS011;5175;42.606;23.388;2023-06-26T00:24:36;22.65;;;20.45;;
10260;SDS011;5175;42.606;23.388;2023-06-26T00:27:03;22.02;;;19.85;;
10260;SDS011;5175;42.606;23.388;2023-06-26T00:29:31;21.08;;;18.98;;
10260;SDS011;5175;42.606;23.388;2023-06-26T00:31:58;20.38;;;18.23;;
10260;SDS011;5175;42.606;23.388;2023-06-26T00:34:24;21.17;;;19.13;;
10260;SDS011;5175;42.606;23.388;2023-06-26T00:36:51;20.80;;;18.58;;
10260;SDS011;5175;42.606;23.388;2023-06-26T00:39:18;20.75;;;18.48;;
10260;SDS011;5175;42.606;23.388;2023-06-26T00:41:44;20.23;;;18.25;;
10260;SDS011;5175;42.606;23.388;2023-06-26T00:44:11;19.92;;;17.92;;
10260;SDS011;5175;42.606;23.388;2023-06-26T00:46:39;21.05;;;18.80;;
10260;SDS011;5175;42.606;23.388;2023-06-26T00:49:06;20.77;;;18.20;;
10260;SDS011;5175;42.606;23.388;2023-06-26T00:51:33;20.92;;;17.90;;
10260;SDS011;5175;42.606;23.388;2023-06-26T00:54:00;18.95;;;16.90;;
10260;SDS011;5175;42.606;23.388;2023-06-26T00:56:27;19.38;;;17.13;;
10260;SDS011;5175;42.606;23.388;2023-06-26T00:58:54;17.30;;;15.77;;
10260;SDS011;5175;42.606;23.388;2023-06-26T01:01:21;17.73;;;15.93;;
10260;SDS011;5175;42.606;23.388;2023-06-26T01:03:52;18.92;;;16.88;;
10260;SDS011;5175;42.606;23.388;2023-06-26T01:06:21;18.25;;;16.50;;
10260;SDS011;5175;42.606;23.388;2023-06-26T01:08:50;17.08;;;15.27;;
10260;SDS011;5175;42.606;23.388;2023-06-26T01:11:18;16.30;;;14.80;;
10260;SDS011;5175;42.606;23.388;2023-06-26T01:13:45;18.38;;;16.08;;
10260;SDS011;5175;42.606;23.388;2023-06-26T01:16:12;17.08;;;15.48;;
10260;SDS011;5175;42.606;23.388;2023-06-26T01:18:41;16.80;;;15.18;;
10260;SDS011;5175;42.606;23.388;2023-06-26T01:21:12;16.98;;;15.38;;
10260;SDS011;5175;42.606;23.388;2023-06-26T01:23:43;16.90;;;15.38;;
10260;SDS011;5175;42.606;23.388;2023-06-26T01:26:18;17.05;;;15.43;;
10260;SDS011;5175;42.606;23.388;2023-06-26T01:28:46;16.35;;;14.85;;
10260;SDS011;5175;42.606;23.388;2023-06-26T01:31:15;17.48;;;15.77;;
10260;SDS011;5175;42.606;23.388;2023-06-26T01:33:43;18.00;;;15.95;;
10260;SDS011;5175;42.606;23.388;2023-06-26T01:36:11;17.85;;;16.05;;
10260;SDS011;5175;42.606;23.388;2023-06-26T01:38:37;16.80;;;15.00;;
10260;SDS011;5175;42.606;23.388;2023-06-26T01:41:04;16.67;;;15.07;;
10260;SDS011;5175;42.606;23.388;2023-06-26T01:43:35;17.38;;;15.77;;
10260;SDS011;5175;42.606;23.388;2023-06-26T01:46:10;16.60;;;15.10;;
10260;SDS011;5175;42.606;23.388;2023-06-26T01:48:49;17.20;;;15.43;;
10260;SDS011;5175;42.606;23.388;2023-06-26T01:51:23;16.77;;;15.20;;
10260;SDS011;5175;42.606;23.388;2023-06-26T01:53:57;16.92;;;15.23;;
10260;SDS011;5175;42.606;23.388;2023-06-26T01:56:26;17.08;;;15.48;;
10260;SDS011;5175;42.606;23.388;2023-06-26T01:58:56;16.95;;;15.13;;
10260;SDS011;5175;42.606;23.388;2023-06-26T02:01:24;17.55;;;15.77;;
10260;SDS011;5175;42.606;23.388;2023-06-26T02:03:51;18.20;;;16.48;;
10260;SDS011;5175;42.606;23.388;2023-06-26T02:06:18;17.42;;;15.82;;
10260;SDS011;5175;42.606;23.388;2023-06-26T02:08:45;17.77;;;15.95;;
10260;SDS011;5175;42.606;23.388;2023-06-26T02:11:12;18.05;;;16.35;;
10260;SDS011;5175;42.606;23.388;2023-06-26T02:13:38;17.52;;;15.73;;
10260;SDS011;5175;42.606;23.388;2023-06-26T02:16:06;17.00;;;15.30;;
10260;SDS011;5175;42.606;23.388;2023-06-26T02:18:33;16.70;;;15.02;;
10260;SDS011;5175;42.606;23.388;2023-06-26T02:21:00;17.05;;;15.40;;
10260;SDS011;5175;42.606;23.388;2023-06-26T02:23:28;17.13;;;15.43;;
10260;SDS011;5175;42.606;23.388;2023-06-26T02:25:55;17.67;;;15.95;;
10260;SDS011;5175;42.606;23.388;2023-06-26T02:28:22;17.42;;;15.77;;
10260;SDS011;5175;42.606;23.388;2023-06-26T02:30:48;17.30;;;15.68;;
10260;SDS011;5175;42.606;23.388;2023-06-26T02:33:16;17.38;;;15.77;;
10260;SDS011;5175;42.606;23.388;2023-06-26T02:35:43;18.55;;;16.95;;
10260;SDS011;5175;42.606;23.388;2023-06-26T02:38:10;17.20;;;15.65;;
10260;SDS011;5175;42.606;23.388;2023-06-26T02:40:38;19.75;;;17.88;;
10260;SDS011;5175;42.606;23.388;2023-06-26T02:43:04;19.77;;;17.83;;
10260;SDS011;5175;42.606;23.388;2023-06-26T02:45:32;18.92;;;17.23;;
10260;SDS011;5175;42.606;23.388;2023-06-26T02:47:59;19.75;;;17.95;;
10260;SDS011;5175;42.606;23.388;2023-06-26T02:50:27;19.35;;;17.45;;
10260;SDS011;5175;42.606;23.388;2023-06-26T02:52:54;20.17;;;18.25;;
10260;SDS011;5175;42.606;23.388;2023-06-26T02:55:21;20.83;;;18.80;;
10260;SDS011;5175;42.606;23.388;2023-06-26T02:57:48;21.15;;;19.13;;
10260;SDS011;5175;42.606;23.388;2023-06-26T03:00:16;19.85;;;18.05;;
10260;SDS011;5175;42.606;23.388;2023-06-26T03:02:43;20.38;;;18.58;;
10260;SDS011;5175;42.606;23.388;2023-06-26T03:05:10;19.98;;;18.08;;
10260;SDS011;5175;42.606;23.388;2023-06-26T03:07:39;20.65;;;18.73;;
10260;SDS011;5175;42.606;23.388;2023-06-26T03:10:06;20.95;;;18.95;;
10260;SDS011;5175;42.606;23.388;2023-06-26T03:12:33;20.85;;;18.77;;
10260;SDS011;5175;42.606;23.388;2023-06-26T03:15:00;20.55;;;18.63;;
10260;SDS011;5175;42.606;23.388;2023-06-26T03:17:27;20.17;;;18.35;;
10260;SDS011;5175;42.606;23.388;2023-06-26T03:19:54;21.02;;;19.02;;
10260;SDS011;5175;42.606;23.388;2023-06-26T03:22:20;21.00;;;19.10;;
10260;SDS011;5175;42.606;23.388;2023-06-26T03:24:48;20.83;;;18.92;;
10260;SDS011;5175;42.606;23.388;2023-06-26T03:27:15;20.55;;;18.75;;
10260;SDS011;5175;42.606;23.388;2023-06-26T03:29:42;21.60;;;19.48;;
10260;SDS011;5175;42.606;23.388;2023-06-26T03:32:09;20.33;;;18.52;;
10260;SDS011;5175;42.606;23.388;2023-06-26T03:34:35;21.17;;;19.23;;
10260;SDS011;5175;42.606;23.388;2023-06-26T03:37:02;21.02;;;19.23;;
10260;SDS011;5175;42.606;23.388;2023-06-26T03:39:29;21.35;;;19.35;;
10260;SDS011;5175;42.606;23.388;2023-06-26T03:41:57;21.50;;;19.50;;
10260;SDS011;5175;42.606;23.388;2023-06-26T03:44:25;22.83;;;20.75;;
10260;SDS011;5175;42.606;23.388;2023-06-26T03:46:52;22.50;;;20.20;;
10260;SDS011;5175;42.606;23.388;2023-06-26T03:49:19;21.90;;;19.90;;
10260;SDS011;5175;42.606;23.388;2023-06-26T03:51:46;22.65;;;20.50;;
10260;SDS011;5175;42.606;23.388;2023-06-26T03:54:13;23.10;;;21.00;;
10260;SDS011;5175;42.606;23.388;2023-06-26T03:56:39;21.70;;;19.70;;
10260;SDS011;5175;42.606;23.388;2023-06-26T03:59:08;21.95;;;20.05;;
10260;SDS011;5175;42.606;23.388;2023-06-26T04:01:35;22.23;;;20.02;;
10260;SDS011;5175;42.606;23.388;2023-06-26T04:04:02;22.25;;;20.25;;
10260;SDS011;5175;42.606;23.388;2023-06-26T04:06:29;22.05;;;20.08;;
10260;SDS011;5175;42.606;23.388;2023-06-26T04:08:56;21.42;;;19.38;;
10260;SDS011;5175;42.606;23.388;2023-06-26T04:11:24;21.30;;;19.40;;
10260;SDS011;5175;42.606;23.388;2023-06-26T04:13:51;22.02;;;20.02;;
10260;SDS011;5175;42.606;23.388;2023-06-26T04:16:19;21.58;;;19.67;;
10260;SDS011;5175;42.606;23.388;2023-06-26T04:18:50;21.25;;;19.33;;
10260;SDS011;5175;42.606;23.388;2023-06-26T04:21:16;20.40;;;18.45;;
10260;SDS011;5175;42.606;23.388;2023-06-26T04:23:44;20.67;;;18.90;;
10260;SDS011;5175;42.606;23.388;2023-06-26T04:26:10;19.67;;;17.77;;
10260;SDS011;5175;42.606;23.388;2023-06-26T04:28:38;20.45;;;18.58;;
10260;SDS011;5175;42.606;23.388;2023-06-26T04:31:05;21.23;;;19.00;;
10260;SDS011;5175;42.606;23.388;2023-06-26T04:33:33;19.75;;;17.77;;
10260;SDS011;5175;42.606;23.388;2023-06-26T04:36:01;20.40;;;18.50;;
10260;SDS011;5175;42.606;23.388;2023-06-26T04:38:29;18.63;;;16.83;;
10260;SDS011;5175;42.606;23.388;2023-06-26T04:40:56;18.30;;;16.77;;
10260;SDS011;5175;42.606;23.388;2023-06-26T04:43:22;18.50;;;16.80;;
10260;SDS011;5175;42.606;23.388;2023-06-26T04:45:49;18.20;;;16.50;;
10260;SDS011;5175;42.606;23.388;2023-06-26T04:48:16;19.02;;;17.33;;
10260;SDS011;5175;42.606;23.388;2023-06-26T04:50:44;18.40;;;16.73;;
10260;SDS011;5175;42.606;23.388;2023-06-26T04:53:17;19.48;;;17.55;;
10260;SDS011;5175;42.606;23.388;2023-06-26T04:55:44;19.50;;;17.70;;
10260;SDS011;5175;42.606;23.388;2023-06-26T04:58:11;19.95;;;17.95;;
10260;SDS011;5175;42.606;23.388;2023-06-26T05:00:38;21.08;;;18.67;;
10260;SDS011;5175;42.606;23.388;2023-06-26T05:03:07;18.85;;;17.15;;
10260;SDS011;5175;42.606;23.388;2023-06-26T05:05:34;19.00;;;17.35;;
10260;SDS011;5175;42.606;23.388;2023-06-26T05:08:14;20.35;;;18.40;;
10260;SDS011;5175;42.606;23.388;2023-06-26T05:10:41;19.92;;;17.92;;
10260;SDS011;5175;42.606;23.388;2023-06-26T05:13:08;20.13;;;18.33;;
10260;SDS011;5175;42.606;23.388;2023-06-26T05:15:35;18.33;;;16.73;;
10260;SDS011;5175;42.606;23.388;2023-06-26T05:18:02;17.75;;;16.27;;
10260;SDS011;5175;42.606;23.388;2023-06-26T05:20:30;18.90;;;17.23;;
10260;SDS011;5175;42.606;23.388;2023-06-26T05:22:57;18.23;;;16.58;;
10260;SDS011;5175;42.606;23.388;2023-06-26T05:25:26;19.38;;;17.67;;
10260;SDS011;5175;42.606;23.388;2023-06-26T05:27:54;19.40;;;17.63;;
10260;SDS011;5175;42.606;23.388;2023-06-26T05:30:21;19.00;;;17.25;;
10260;SDS011;5175;42.606;23.388;2023-06-26T05:32:50;20.17;;;18.38;;
10260;SDS011;5175;42.606;23.388;2023-06-26T05:35:17;19.17;;;17.23;;
10260;SDS011;5175;42.606;23.388;2023-06-26T05:37:46;19.15;;;17.35;;
10260;SDS011;5175;42.606;23.388;2023-06-26T05:40:15;20.15;;;18.25;;
10260;SDS011;5175;42.606;23.388;2023-06-26T05:42:44;19.23;;;17.63;;
10260;SDS011;5175;42.606;23.388;2023-06-26T05:45:12;19.25;;;17.45;;
10260;SDS011;5175;42.606;23.388;2023-06-26T05:47:38;19.75;;;17.83;;
10260;SDS011;5175;42.606;23.388;2023-06-26T05:50:06;18.65;;;16.75;;
10260;SDS011;5175;42.606;23.388;2023-06-26T05:52:34;17.88;;;16.17;;
10260;SDS011;5175;42.606;23.388;2023-06-26T05:55:01;17.73;;;16.00;;
10260;SDS011;5175;42.606;23.388;2023-06-26T05:57:29;17.00;;;15.60;;
10260;SDS011;5175;42.606;23.388;2023-06-26T05:59:58;16.88;;;15.35;;
10260;SDS011;5175;42.606;23.388;2023-06-26T06:02:25;18.25;;;16.58;;
10260;SDS011;5175;42.606;23.388;2023-06-26T06:04:52;17.17;;;15.70;;
10260;SDS011;5175;42.606;23.388;2023-06-26T06:07:19;16.90;;;15.45;;
10260;SDS011;5175;42.606;23.388;2023-06-26T06:09:47;17.48;;;15.65;;
10260;SDS011;5175;42.606;23.388;2023-06-26T06:12:13;16.73;;;15.13;;
10260;SDS011;5175;42.606;23.388;2023-06-26T06:14:40;18.10;;;16.30;;
10260;SDS011;5175;42.606;23.388;2023-06-26T06:17:08;17.00;;;15.40;;
10260;SDS011;5175;42.606;23.388;2023-06-26T06:19:35;18.08;;;16.35;;
10260;SDS011;5175;42.606;23.388;2023-06-26T06:22:02;18.52;;;16.92;;
10260;SDS011;5175;42.606;23.388;2023-06-26T06:24:29;18.27;;;16.70;;
10260;SDS011;5175;42.606;23.388;2023-06-26T06:26:56;18.15;;;16.38;;
10260;SDS011;5175;42.606;23.388;2023-06-26T06:29:23;18.60;;;16.90;;
10260;SDS011;5175;42.606;23.388;2023-06-26T06:32:04;19.75;;;17.95;;
10260;SDS011;5175;42.606;23.388;2023-06-26T06:34:33;18.48;;;16.95;;
10260;SDS011;5175;42.606;23.388;2023-06-26T06:37:00;16.73;;;15.23;;
10260;SDS011;5175;42.606;23.388;2023-06-26T06:39:30;16.98;;;15.48;;
10260;SDS011;5175;42.606;23.388;2023-06-26T06:41:59;16.83;;;15.05;;
10260;SDS011;5175;42.606;23.388;2023-06-26T06:44:27;17.27;;;15.77;;
10260;SDS011;5175;42.606;23.388;2023-06-26T06:46:55;16.17;;;14.55;;
10260;SDS011;5175;42.606;23.388;2023-06-26T06:49:22;15.80;;;13.93;;
10260;SDS011;5175;42.606;23.388;2023-06-26T06:51:50;15.63;;;14.30;;
10260;SDS011;5175;42.606;23.388;2023-06-26T06:54:17;16.33;;;14.90;;
10260;SDS011;5175;42.606;23.388;2023-06-26T06:56:44;16.60;;;15.10;;
10260;SDS011;5175;42.606;23.388;2023-06-26T06:59:11;14.68;;;13.38;;
10260;SDS011;5175;42.606;23.388;2023-06-26T07:01:38;14.45;;;12.60;;
10260;SDS011;5175;42.606;23.388;2023-06-26T07:04:06;15.35;;;14.05;;
10260;SDS011;5175;42.606;23.388;2023-06-26T07:06:32;14.80;;;13.35;;
10260;SDS011;5175;42.606;23.388;2023-06-26T07:09:01;14.70;;;13.30;;
10260;SDS011;5175;42.606;23.388;2023-06-26T07:11:28;14.60;;;13.10;;
10260;SDS011;5175;42.606;23.388;2023-06-26T07:13:55;11.98;;;10.88;;
10260;SDS011;5175;42.606;23.388;2023-06-26T07:16:22;13.23;;;12.00;;
10260;SDS011;5175;42.606;23.388;2023-06-26T07:18:48;12.57;;;11.55;;
10260;SDS011;5175;42.606;23.388;2023-06-26T07:21:17;12.82;;;11.73;;
10260;SDS011;5175;42.606;23.388;2023-06-26T07:23:43;12.20;;;11.10;;
10260;SDS011;5175;42.606;23.388;2023-06-26T07:26:13;12.63;;;11.52;;
10260;SDS011;5175;42.606;23.388;2023-06-26T07:28:40;11.30;;;10.30;;
10260;SDS011;5175;42.606;23.388;2023-06-26T07:31:07;9.55;;;8.55;;
10260;SDS011;5175;42.606;23.388;2023-06-26T07:33:34;10.10;;;9.13;;
10260;SDS011;5175;42.606;23.388;2023-06-26T07:36:01;11.15;;;10.07;;
10260;SDS011;5175;42.606;23.388;2023-06-26T07:38:28;10.60;;;9.75;;
10260;SDS011;5175;42.606;23.388;2023-06-26T07:40:55;9.80;;;8.90;;
10260;SDS011;5175;42.606;23.388;2023-06-26T07:43:23;9.43;;;8.57;;
10260;SDS011;5175;42.606;23.388;2023-06-26T07:45:50;8.85;;;8.15;;
10260;SDS011;5175;42.606;23.388;2023-06-26T07:48:19;8.90;;;8.07;;
10260;SDS011;5175;42.606;23.388;2023-06-26T07:50:46;8.90;;;8.20;;
10260;SDS011;5175;42.606;23.388;2023-06-26T07:53:13;8.98;;;8.18;;
10260;SDS011;5175;42.606;23.388;2023-06-26T07:55:40;9.52;;;8.50;;
10260;SDS011;5175;42.606;23.388;2023-06-26T07:58:07;8.27;;;7.57;;
10260;SDS011;5175;42.606;23.388;2023-06-26T08:00:36;9.30;;;8.30;;
10260;SDS011;5175;42.606;23.388;2023-06-26T08:03:03;7.90;;;7.30;;
10260;SDS011;5175;42.606;23.388;2023-06-26T08:05:30;8.18;;;7.32;;
10260;SDS011;5175;42.606;23.388;2023-06-26T08:07:57;8.30;;;6.60;;
10260;SDS011;5175;42.606;23.388;2023-06-26T08:10:25;7.45;;;6.70;;
10260;SDS011;5175;42.606;23.388;2023-06-26T08:12:52;6.72;;;6.13;;
10260;SDS011;5175;42.606;23.388;2023-06-26T08:15:20;7.20;;;6.63;;
10260;SDS011;5175;42.606;23.388;2023-06-26T08:17:49;7.18;;;6.43;;
10260;SDS011;5175;42.606;23.388;2023-06-26T08:20:32;6.85;;;5.75;;
10260;SDS011;5175;42.606;23.388;2023-06-26T08:23:01;6.20;;;5.60;;
10260;SDS011;5175;42.606;23.388;2023-06-26T08:25:28;7.47;;;5.60;;
10260;SDS011;5175;42.606;23.388;2023-06-26T08:27:55;5.22;;;4.72;;
10260;SDS011;5175;42.606;23.388;2023-06-26T08:30:23;6.38;;;5.78;;
10260;SDS011;5175;42.606;23.388;2023-06-26T08:32:54;6.28;;;5.68;;
10260;SDS011;5175;42.606;23.388;2023-06-26T08:35:21;7.82;;;6.22;;
10260;SDS011;5175;42.606;23.388;2023-06-26T08:37:51;6.88;;;6.20;;
10260;SDS011;5175;42.606;23.388;2023-06-26T08:40:23;5.25;;;4.80;;
10260;SDS011;5175;42.606;23.388;2023-06-26T08:42:52;5.45;;;4.97;;
10260;SDS011;5175;42.606;23.388;2023-06-26T08:45:19;6.00;;;5.45;;
10260;SDS011;5175;42.606;23.388;2023-06-26T08:47:48;7.70;;;6.93;;
10260;SDS011;5175;42.606;23.388;2023-06-26T08:50:22;6.28;;;5.78;;
10260;SDS011;5175;42.606;23.388;2023-06-26T08:52:56;7.32;;;6.22;;
10260;SDS011;5175;42.606;23.388;2023-06-26T08:55:33;7.22;;;6.53;;
10260;SDS011;5175;42.606;23.388;2023-06-26T08:58:06;7.30;;;6.60;;
10260;SDS011;5175;42.606;23.388;2023-06-26T09:00:33;7.47;;;6.63;;
10260;SDS011;5175;42.606;23.388;2023-06-26T09:03:02;6.80;;;5.90;;
10260;SDS011;5175;42.606;23.388;2023-06-26T09:05:34;7.53;;;6.30;;
10260;SDS011;5175;42.606;23.388;2023-06-26T09:08:02;7.30;;;6.60;;
10260;SDS011;5175;42.606;23.388;2023-06-26T09:10:30;6.97;;;6.13;;
10260;SDS011;5175;42.606;23.388;2023-06-26T09:12:59;6.68;;;6.07;;
10260;SDS011;5175;42.606;23.388;2023-06-26T09:15:36;6.72;;;6.00;;
10260;SDS011;5175;42.606;23.388;2023-06-26T09:18:04;7.85;;;5.50;;
10260;SDS011;5175;42.606;23.388;2023-06-26T09:20:34;6.53;;;5.28;;
10260;SDS011;5175;42.606;23.388;2023-06-26T09:23:01;6.25;;;5.72;;
10260;SDS011;5175;42.606;23.388;2023-06-26T09:25:28;5.70;;;5.22;;
10260;SDS011;5175;42.606;23.388;2023-06-26T09:27:55;6.68;;;5.90;;
10260;SDS011;5175;42.606;23.388;2023-06-26T09:30:22;7.05;;;5.75;;
10260;SDS011;5175;42.606;23.388;2023-06-26T09:32:49;6.55;;;6.05;;
10260;SDS011;5175;42.606;23.388;2023-06-26T09:35:15;6.10;;;5.50;;
10260;SDS011;5175;42.606;23.388;2023-06-26T09:37:44;6.15;;;5.55;;
10260;SDS011;5175;42.606;23.388;2023-06-26T09:40:11;6.47;;;5.70;;
10260;SDS011;5175;42.606;23.388;2023-06-26T09:42:37;6.40;;;5.80;;
10260;SDS011;5175;42.606;23.388;2023-06-26T09:45:04;6.63;;;4.93;;
10260;SDS011;5175;42.606;23.388;2023-06-26T09:47:32;8.85;;;5.95;;
10260;SDS011;5175;42.606;23.388;2023-06-26T09:50:02;5.53;;;5.13;;
10260;SDS011;5175;42.606;23.388;2023-06-26T09:52:29;5.40;;;4.90;;
10260;SDS011;5175;42.606;23.388;2023-06-26T09:55:08;5.28;;;4.85;;
10260;SDS011;5175;42.606;23.388;2023-06-26T09:57:35;7.22;;;5.88;;
10260;SDS011;5175;42.606;23.388;2023-06-26T10:00:02;6.82;;;5.80;;
10260;SDS011;5175;42.606;23.388;2023-06-26T10:02:30;6.50;;;5.40;;
10260;SDS011;5175;42.606;23.388;2023-06-26T10:04:57;6.95;;;6.35;;
10260;SDS011;5175;42.606;23.388;2023-06-26T10:07:24;6.50;;;6.00;;
10260;SDS011;5175;42.606;23.388;2023-06-26T10:09:51;6.60;;;5.90;;
10260;SDS011;5175;42.606;23.388;2023-06-26T10:12:24;6.57;;;5.75;;
10260;SDS011;5175;42.606;23.388;2023-06-26T10:14:53;6.57;;;5.97;;
10260;SDS011;5175;42.606;23.388;2023-06-26T10:17:22;6.15;;;5.55;;
10260;SDS011;5175;42.606;23.388;2023-06-26T10:19:53;7.22;;;6.25;;
10260;SDS011;5175;42.606;23.388;2023-06-26T10:22:23;6.25;;;5.68;;
10260;SDS011;5175;42.606;23.388;2023-06-26T10:24:53;5.93;;;5.32;;
10260;SDS011;5175;42.606;23.388;2023-06-26T10:27:27;6.35;;;5.55;;
10260;SDS011;5175;42.606;23.388;2023-06-26T10:30:00;7.25;;;5.72;;
10260;SDS011;5175;42.606;23.388;2023-06-26T10:32:29;5.95;;;5.43;;
10260;SDS011;5175;42.606;23.388;2023-06-26T10:34:56;6.80;;;6.18;;
10260;SDS011;5175;42.606;23.388;2023-06-26T10:40:09;6.30;;;5.72;;
10260;SDS011;5175;42.606;23.388;2023-06-26T10:42:39;6.18;;;5.68;;
10260;SDS011;5175;42.606;23.388;2023-06-26T10:45:09;6.25;;;5.65;;
10260;SDS011;5175;42.606;23.388;2023-06-26T10:47:38;6.65;;;5.80;;
10260;SDS011;5175;42.606;23.388;2023-06-26T10:50:23;6.10;;;5.50;;
10260;SDS011;5175;42.606;23.388;2023-06-26T10:53:13;7.97;;;5.57;;
10260;SDS011;5175;42.606;23.388;2023-06-26T10:55:47;7.10;;;6.32;;
10260;SDS011;5175;42.606;23.388;2023-06-26T10:58:31;6.97;;;6.30;;
10260;SDS011;5175;42.606;23.388;2023-06-26T11:01:14;7.38;;;6.20;;
10260;SDS011;5175;42.606;23.388;2023-06-26T11:03:46;7.65;;;6.43;;
10260;SDS011;5175;42.606;23.388;2023-06-26T11:06:15;7.90;;;6.65;;
10260;SDS011;5175;42.606;23.388;2023-06-26T11:08:44;6.93;;;6.22;;
10260;SDS011;5175;42.606;23.388;2023-06-26T11:11:11;6.55;;;5.95;;
10260;SDS011;5175;42.606;23.388;2023-06-26T11:13:39;7.13;;;6.43;;
10260;SDS011;5175;42.606;23.388;2023-06-26T11:16:06;6.63;;;6.03;;
10260;SDS011;5175;42.606;23.388;2023-06-26T11:18:32;7.05;;;6.35;;
10260;SDS011;5175;42.606;23.388;2023-06-26T11:21:06;6.93;;;6.32;;
10260;SDS011;5175;42.606;23.388;2023-06-26T11:23:33;6.95;;;6.20;;
10260;SDS011;5175;42.606;23.388;2023-06-26T11:26:17;7.32;;;6.45;;
10260;SDS011;5175;42.606;23.388;2023-06-26T11:31:29;8.45;;;6.38;;
10260;SDS011;5175;42.606;23.388;2023-06-26T11:33:57;6.53;;;5.93;;
10260;SDS011;5175;42.606;23.388;2023-06-26T11:36:25;6.05;;;5.55;;
10260;SDS011;5175;42.606;23.388;2023-06-26T11:38:53;8.35;;;6.20;;
10260;SDS011;5175;42.606;23.388;2023-06-26T11:41:21;6.32;;;5.50;;
10260;SDS011;5175;42.606;23.388;2023-06-26T11:43:48;7.32;;;5.97;;
10260;SDS011;5175;42.606;23.388;2023-06-26T11:46:17;6.78;;;6.00;;
10260;SDS011;5175;42.606;23.388;2023-06-26T11:48:46;7.05;;;5.80;;
10260;SDS011;5175;42.606;23.388;2023-06-26T11:51:13;5.97;;;5.47;;
10260;SDS011;5175;42.606;23.388;2023-06-26T11:53:40;5.80;;;5.28;;
10260;SDS011;5175;42.606;23.388;2023-06-26T11:56:08;6.65;;;5.90;;
10260;SDS011;5175;42.606;23.388;2023-06-26T11:58:35;6.10;;;5.43;;
10260;SDS011;5175;42.606;23.388;2023-06-26T12:01:02;6.35;;;5.72;;
10260;SDS011;5175;42.606;23.388;2023-06-26T12:03:31;6.75;;;5.82;;
10260;SDS011;5175;42.606;23.388;2023-06-26T12:05:58;5.57;;;5.07;;
10260;SDS011;5175;42.606;23.388;2023-06-26T12:08:28;5.55;;;4.97;;
10260;SDS011;5175;42.606;23.388;2023-06-26T12:10:55;7.32;;;5.38;;
10260;SDS011;5175;42.606;23.388;2023-06-26T12:13:22;7.38;;;5.75;;
10260;SDS011;5175;42.606;23.388;2023-06-26T12:15:49;5.40;;;4.90;;
10260;SDS011;5175;42.606;23.388;2023-06-26T12:18:16;6.35;;;5.82;;
10260;SDS011;5175;42.606;23.388;2023-06-26T12:20:44;6.43;;;5.80;;
10260;SDS011;5175;42.606;23.388;2023-06-26T12:23:11;5.88;;;5.38;;
10260;SDS011;5175;42.606;23.388;2023-06-26T12:25:38;6.90;;;5.90;;
10260;SDS011;5175;42.606;23.388;2023-06-26T12:28:14;5.70;;;5.20;;
10260;SDS011;5175;42.606;23.388;2023-06-26T12:30:45;6.18;;;5.57;;
10260;SDS011;5175;42.606;23.388;2023-06-26T12:33:12;5.97;;;5.47;;
10260;SDS011;5175;42.606;23.388;2023-06-26T12:35:40;5.55;;;5.05;;
10260;SDS011;5175;42.606;23.388;2023-06-26T12:38:09;6.47;;;5.88;;
10260;SDS011;5175;42.606;23.388;2023-06-26T12:40:44;6.50;;;5.50;;
10260;SDS011;5175;42.606;23.388;2023-06-26T12:43:11;6.32;;;5.72;;
10260;SDS011;5175;42.606;23.388;2023-06-26T12:45:38;5.88;;;5.38;;
10260;SDS011;5175;42.606;23.388;2023-06-26T12:48:09;5.88;;;5.28;;
10260;SDS011;5175;42.606;23.388;2023-06-26T12:50:38;5.75;;;5.25;;
10260;SDS011;5175;42.606;23.388;2023-06-26T12:53:10;6.18;;;5.57;;
10260;SDS011;5175;42.606;23.388;2023-06-26T12:55:37;5.78;;;5.00;;
10260;SDS011;5175;42.606;23.388;2023-06-26T12:58:04;5.95;;;5.35;;
10260;SDS011;5175;42.606;23.388;2023-06-26T13:00:32;5.53;;;5.13;;
10260;SDS011;5175;42.606;23.388;2023-06-26T13:02:59;6.88;;;4.82;;
10260;SDS011;5175;42.606;23.388;2023-06-26T13:05:26;5.45;;;5.00;;
10260;SDS011;5175;42.606;23.388;2023-06-26T13:07:52;5.88;;;5.38;;
10260;SDS011;5175;42.606;23.388;2023-06-26T13:10:21;5.95;;;5.32;;
10260;SDS011;5175;42.606;23.388;2023-06-26T13:12:48;7.00;;;6.18;;
10260;SDS011;5175;42.606;23.388;2023-06-26T13:15:15;6.07;;;5.50;;
10260;SDS011;5175;42.606;23.388;2023-06-26T13:17:41;6.00;;;5.40;;
10260;SDS011;5175;42.606;23.388;2023-06-26T13:20:09;5.95;;;5.45;;
10260;SDS011;5175;42.606;23.388;2023-06-26T13:22:36;6.55;;;5.40;;
10260;SDS011;5175;42.606;23.388;2023-06-26T13:25:03;5.97;;;5.47;;
10260;SDS011;5175;42.606;23.388;2023-06-26T13:27:31;6.20;;;5.60;;
10260;SDS011;5175;42.606;23.388;2023-06-26T13:29:58;5.78;;;5.38;;
10260;SDS011;5175;42.606;23.388;2023-06-26T13:32:27;6.75;;;6.13;;
10260;SDS011;5175;42.606;23.388;2023-06-26T13:34:53;5.93;;;5.43;;
10260;SDS011;5175;42.606;23.388;2023-06-26T13:37:20;6.25;;;5.65;;
10260;SDS011;5175;42.606;23.388;2023-06-26T13:39:47;7.22;;;6.15;;
10260;SDS011;5175;42.606;23.388;2023-06-26T13:42:14;6.25;;;5.75;;
10260;SDS011;5175;42.606;23.388;2023-06-26T13:44:43;6.50;;;5.90;;
10260;SDS011;5175;42.606;23.388;2023-06-26T13:47:18;6.75;;;5.68;;
10260;SDS011;5175;42.606;23.388;2023-06-26T13:50:03;6.30;;;5.57;;
10260;SDS011;5175;42.606;23.388;2023-06-26T13:52:31;7.10;;;6.28;;
10260;SDS011;5175;42.606;23.388;2023-06-26T13:54:57;8.93;;;5.82;;
10260;SDS011;5175;42.606;23.388;2023-06-26T13:57:24;6.40;;;5.82;;
10260;SDS011;5175;42.606;23.388;2023-06-26T13:59:55;6.63;;;5.90;;
10260;SDS011;5175;42.606;23.388;2023-06-26T14:02:21;6.20;;;5.70;;
10260;SDS011;5175;42.606;23.388;2023-06-26T14:04:48;6.13;;;5.63;;
10260;SDS011;5175;42.606;23.388;2023-06-26T14:07:15;6.35;;;5.80;;
10260;SDS011;5175;42.606;23.388;2023-06-26T14:09:42;5.57;;;5.07;;
10260;SDS011;5175;42.606;23.388;2023-06-26T14:12:08;7.15;;;6.15;;
10260;SDS011;5175;42.606;23.388;2023-06-26T14:14:35;7.43;;;5.53;;
10260;SDS011;5175;42.606;23.388;2023-06-26T14:17:04;6.03;;;5.53;;
10260;SDS011;5175;42.606;23.388;2023-06-26T14:19:31;6.20;;;5.70;;
10260;SDS011;5175;42.606;23.388;2023-06-26T14:21:58;6.07;;;5.57;;
10260;SDS011;5175;42.606;23.388;2023-06-26T14:24:26;6.63;;;6.05;;
10260;SDS011;5175;42.606;23.388;2023-06-26T14:26:53;6.00;;;5.47;;
10260;SDS011;5175;42.606;23.388;2023-06-26T14:29:19;6.88;;;5.80;;
10260;SDS011;5175;42.606;23.388;2023-06-26T14:31:47;7.10;;;5.40;;
10260;SDS011;5175;42.606;23.388;2023-06-26T14:34:15;6.35;;;5.75;;
10260;SDS011;5175;42.606;23.388;2023-06-26T14:36:41;5.97;;;5.47;;
10260;SDS011;5175;42.606;23.388;2023-06-26T14:39:08;6.55;;;5.47;;
10260;SDS011;5175;42.606;23.388;2023-06-26T14:41:35;6.43;;;5.38;;
10260;SDS011;5175;42.606;23.388;2023-06-26T14:44:02;5.68;;;5.18;;